sensor_id;sensor_type;location;lat;lon;timestamp;P1;durP1;ratioP1;P2;durP2;ratioP2
6689;SDS011;3382;51.576;8.076;2023-11-18T00:00:15;5.20;;;4.50;;
6689;SDS011;3382;51.576;8.076;2023-11-18T00:02:42;5.30;;;4.80;;
6689;SDS011;3382;51.576;8.076;2023-11-18T00:05:08;5.43;;;4.93;;
6689;SDS011;3382;51.576;8.076;2023-11-18T00:07:34;5.70;;;4.93;;
6689;SDS011;3382;51.576;8.076;2023-11-18T00:10:00;5.13;;;4.73;;
6689;SDS011;3382;51.576;8.076;2023-11-18T00:12:25;4.53;;;4.13;;
6689;SDS011;3382;51.576;8.076;2023-11-18T00:14:51;5.70;;;4.40;;
6689;SDS011;3382;51.576;8.076;2023-11-18T00:17:16;5.40;;;4.90;;
6689;SDS011;3382;51.576;8.076;2023-11-18T00:19:42;5.60;;;4.30;;
6689;SDS011;3382;51.576;8.076;2023-11-18T00:22:08;4.70;;;4.30;;
6689;SDS011;3382;51.576;8.076;2023-11-18T00:24:33;5.17;;;4.67;;
6689;SDS011;3382;51.576;8.076;2023-11-18T00:26:59;5.30;;;4.80;;
6689;SDS011;3382;51.576;8.076;2023-11-18T00:29:30;5.60;;;4.47;;
6689;SDS011;3382;51.576;8.076;2023-11-18T00:31:59;6.67;;;4.70;;
6689;SDS011;3382;51.576;8.076;2023-11-18T00:34:26;5.03;;;4.53;;
6689;SDS011;3382;51.576;8.076;2023-11-18T00:36:51;4.77;;;4.37;;
6689;SDS011;3382;51.576;8.076;2023-11-18T00:39:17;5.97;;;4.80;;
6689;SDS011;3382;51.576;8.076;2023-11-18T00:41:43;5.20;;;4.10;;
6689;SDS011;3382;51.576;8.076;2023-11-18T00:44:08;4.93;;;4.53;;
6689;SDS011;3382;51.576;8.076;2023-11-18T00:46:35;4.97;;;4.27;;
6689;SDS011;3382;51.576;8.076;2023-11-18T00:49:03;5.23;;;4.30;;
6689;SDS011;3382;51.576;8.076;2023-11-18T00:51:30;5.63;;;4.87;;
6689;SDS011;3382;51.576;8.076;2023-11-18T00:53:55;4.80;;;4.40;;
6689;SDS011;3382;51.576;8.076;2023-11-18T00:56:21;4.53;;;4.13;;
6689;SDS011;3382;51.576;8.076;2023-11-18T00:58:49;5.00;;;4.27;;
6689;SDS011;3382;51.576;8.076;2023-11-18T01:01:15;4.50;;;4.10;;
6689;SDS011;3382;51.576;8.076;2023-11-18T01:03:47;4.30;;;3.87;;
6689;SDS011;3382;51.576;8.076;2023-11-18T01:06:13;4.57;;;4.10;;
6689;SDS011;3382;51.576;8.076;2023-11-18T01:08:40;4.87;;;4.00;;
6689;SDS011;3382;51.576;8.076;2023-11-18T01:11:09;4.20;;;3.80;;
6689;SDS011;3382;51.576;8.076;2023-11-18T01:13:34;4.83;;;4.20;;
6689;SDS011;3382;51.576;8.076;2023-11-18T01:16:00;4.67;;;4.27;;
6689;SDS011;3382;51.576;8.076;2023-11-18T01:18:26;4.77;;;4.10;;
6689;SDS011;3382;51.576;8.076;2023-11-18T01:20:53;4.73;;;4.33;;
6689;SDS011;3382;51.576;8.076;2023-11-18T01:23:18;4.50;;;4.10;;
6689;SDS011;3382;51.576;8.076;2023-11-18T01:25:44;4.70;;;4.20;;
6689;SDS011;3382;51.576;8.076;2023-11-18T01:28:10;4.40;;;3.87;;
6689;SDS011;3382;51.576;8.076;2023-11-18T01:30:35;5.30;;;4.40;;
6689;SDS011;3382;51.576;8.076;2023-11-18T01:33:01;5.20;;;4.40;;
6689;SDS011;3382;51.576;8.076;2023-11-18T01:35:27;4.37;;;3.97;;
6689;SDS011;3382;51.576;8.076;2023-11-18T01:37:53;4.83;;;4.13;;
6689;SDS011;3382;51.576;8.076;2023-11-18T01:40:22;4.50;;;4.10;;
6689;SDS011;3382;51.576;8.076;2023-11-18T01:42:48;5.60;;;4.13;;
6689;SDS011;3382;51.576;8.076;2023-11-18T01:45:14;4.30;;;3.90;;
6689;SDS011;3382;51.576;8.076;2023-11-18T01:47:41;4.40;;;3.90;;
6689;SDS011;3382;51.576;8.076;2023-11-18T01:50:09;4.53;;;4.00;;
6689;SDS011;3382;51.576;8.076;2023-11-18T01:52:37;4.90;;;4.40;;
6689;SDS011;3382;51.576;8.076;2023-11-18T01:55:04;4.50;;;4.10;;
6689;SDS011;3382;51.576;8.076;2023-11-18T01:57:32;4.63;;;3.90;;
6689;SDS011;3382;51.576;8.076;2023-11-18T01:59:58;4.70;;;4.13;;
6689;SDS011;3382;51.576;8.076;2023-11-18T02:02:25;4.33;;;3.93;;
6689;SDS011;3382;51.576;8.076;2023-11-18T02:04:51;4.00;;;3.70;;
6689;SDS011;3382;51.576;8.076;2023-11-18T02:07:17;4.57;;;4.03;;
6689;SDS011;3382;51.576;8.076;2023-11-18T02:09:43;4.40;;;4.00;;
6689;SDS011;3382;51.576;8.076;2023-11-18T02:14:54;4.80;;;3.93;;
6689;SDS011;3382;51.576;8.076;2023-11-18T02:17:22;4.20;;;3.80;;
6689;SDS011;3382;51.576;8.076;2023-11-18T02:19:50;4.47;;;4.03;;
6689;SDS011;3382;51.576;8.076;2023-11-18T02:22:17;3.87;;;3.57;;
6689;SDS011;3382;51.576;8.076;2023-11-18T02:24:43;4.00;;;3.50;;
6689;SDS011;3382;51.576;8.076;2023-11-18T02:27:09;5.60;;;4.20;;
6689;SDS011;3382;51.576;8.076;2023-11-18T02:29:39;3.97;;;3.53;;
6689;SDS011;3382;51.576;8.076;2023-11-18T02:35:18;7.07;;;4.03;;
6689;SDS011;3382;51.576;8.076;2023-11-18T02:37:50;4.30;;;3.80;;
6689;SDS011;3382;51.576;8.076;2023-11-18T02:40:20;4.70;;;4.10;;
6689;SDS011;3382;51.576;8.076;2023-11-18T02:42:54;4.53;;;4.00;;
6689;SDS011;3382;51.576;8.076;2023-11-18T02:45:22;4.13;;;3.73;;
6689;SDS011;3382;51.576;8.076;2023-11-18T02:47:49;4.20;;;3.80;;
6689;SDS011;3382;51.576;8.076;2023-11-18T02:50:14;4.53;;;4.03;;
6689;SDS011;3382;51.576;8.076;2023-11-18T02:52:40;4.33;;;3.93;;
6689;SDS011;3382;51.576;8.076;2023-11-18T02:55:06;3.83;;;3.53;;
6689;SDS011;3382;51.576;8.076;2023-11-18T02:57:33;3.97;;;3.63;;
6689;SDS011;3382;51.576;8.076;2023-11-18T02:59:59;4.43;;;4.03;;
6689;SDS011;3382;51.576;8.076;2023-11-18T03:02:26;3.90;;;3.60;;
6689;SDS011;3382;51.576;8.076;2023-11-18T03:04:54;4.50;;;3.80;;
6689;SDS011;3382;51.576;8.076;2023-11-18T03:07:20;3.80;;;3.50;;
6689;SDS011;3382;51.576;8.076;2023-11-18T03:09:46;4.40;;;4.00;;
6689;SDS011;3382;51.576;8.076;2023-11-18T03:12:12;4.23;;;3.63;;
6689;SDS011;3382;51.576;8.076;2023-11-18T03:14:37;3.73;;;3.43;;
6689;SDS011;3382;51.576;8.076;2023-11-18T03:17:03;4.13;;;3.70;;
6689;SDS011;3382;51.576;8.076;2023-11-18T03:19:31;3.67;;;3.37;;
6689;SDS011;3382;51.576;8.076;2023-11-18T03:21:59;3.70;;;3.40;;
6689;SDS011;3382;51.576;8.076;2023-11-18T03:24:25;4.37;;;3.77;;
6689;SDS011;3382;51.576;8.076;2023-11-18T03:26:51;3.50;;;3.20;;
6689;SDS011;3382;51.576;8.076;2023-11-18T03:29:16;4.27;;;3.87;;
6689;SDS011;3382;51.576;8.076;2023-11-18T03:31:42;4.00;;;3.43;;
6689;SDS011;3382;51.576;8.076;2023-11-18T03:34:09;3.80;;;3.50;;
6689;SDS011;3382;51.576;8.076;2023-11-18T03:36:35;3.60;;;3.30;;
6689;SDS011;3382;51.576;8.076;2023-11-18T03:39:00;3.37;;;3.07;;
6689;SDS011;3382;51.576;8.076;2023-11-18T03:41:26;3.73;;;3.40;;
6689;SDS011;3382;51.576;8.076;2023-11-18T03:43:52;3.90;;;3.50;;
6689;SDS011;3382;51.576;8.076;2023-11-18T03:46:17;3.40;;;3.10;;
6689;SDS011;3382;51.576;8.076;2023-11-18T03:48:44;3.60;;;3.30;;
6689;SDS011;3382;51.576;8.076;2023-11-18T03:51:09;3.67;;;3.23;;
6689;SDS011;3382;51.576;8.076;2023-11-18T03:53:35;3.33;;;3.03;;
6689;SDS011;3382;51.576;8.076;2023-11-18T03:56:00;4.40;;;3.50;;
6689;SDS011;3382;51.576;8.076;2023-11-18T03:58:27;3.90;;;3.50;;
6689;SDS011;3382;51.576;8.076;2023-11-18T04:00:53;4.03;;;3.63;;
6689;SDS011;3382;51.576;8.076;2023-11-18T04:03:19;3.90;;;3.40;;
6689;SDS011;3382;51.576;8.076;2023-11-18T04:05:44;3.60;;;3.30;;
6689;SDS011;3382;51.576;8.076;2023-11-18T04:08:10;4.10;;;3.30;;
6689;SDS011;3382;51.576;8.076;2023-11-18T04:10:36;3.67;;;3.37;;
6689;SDS011;3382;51.576;8.076;2023-11-18T04:13:02;3.50;;;3.20;;
6689;SDS011;3382;51.576;8.076;2023-11-18T04:15:27;4.13;;;3.47;;
6689;SDS011;3382;51.576;8.076;2023-11-18T04:17:53;3.57;;;3.27;;
6689;SDS011;3382;51.576;8.076;2023-11-18T04:20:19;3.70;;;3.13;;
6689;SDS011;3382;51.576;8.076;2023-11-18T04:22:44;3.90;;;3.50;;
6689;SDS011;3382;51.576;8.076;2023-11-18T04:25:10;3.27;;;2.97;;
6689;SDS011;3382;51.576;8.076;2023-11-18T04:27:40;3.70;;;3.40;;
6689;SDS011;3382;51.576;8.076;2023-11-18T04:30:06;3.40;;;3.10;;
6689;SDS011;3382;51.576;8.076;2023-11-18T04:32:33;4.10;;;3.63;;
6689;SDS011;3382;51.576;8.076;2023-11-18T04:34:59;3.73;;;3.43;;
6689;SDS011;3382;51.576;8.076;2023-11-18T04:37:31;3.73;;;3.43;;
6689;SDS011;3382;51.576;8.076;2023-11-18T04:40:00;3.30;;;3.00;;
6689;SDS011;3382;51.576;8.076;2023-11-18T04:42:27;3.67;;;3.37;;
6689;SDS011;3382;51.576;8.076;2023-11-18T04:44:54;3.47;;;3.17;;
6689;SDS011;3382;51.576;8.076;2023-11-18T04:47:23;3.90;;;3.60;;
6689;SDS011;3382;51.576;8.076;2023-11-18T04:49:50;3.13;;;2.90;;
6689;SDS011;3382;51.576;8.076;2023-11-18T04:52:16;3.67;;;3.37;;
6689;SDS011;3382;51.576;8.076;2023-11-18T04:54:42;3.70;;;3.10;;
6689;SDS011;3382;51.576;8.076;2023-11-18T04:57:08;3.60;;;3.10;;
6689;SDS011;3382;51.576;8.076;2023-11-18T04:59:34;3.33;;;3.03;;
6689;SDS011;3382;51.576;8.076;2023-11-18T05:02:00;3.23;;;3.00;;
6689;SDS011;3382;51.576;8.076;2023-11-18T05:04:27;3.53;;;3.23;;
6689;SDS011;3382;51.576;8.076;2023-11-18T05:06:53;3.20;;;3.00;;
6689;SDS011;3382;51.576;8.076;2023-11-18T05:09:18;3.10;;;2.80;;
6689;SDS011;3382;51.576;8.076;2023-11-18T05:11:44;3.20;;;2.90;;
6689;SDS011;3382;51.576;8.076;2023-11-18T05:14:10;2.90;;;2.70;;
6689;SDS011;3382;51.576;8.076;2023-11-18T05:16:36;3.53;;;3.20;;
6689;SDS011;3382;51.576;8.076;2023-11-18T05:19:02;3.47;;;3.17;;
6689;SDS011;3382;51.576;8.076;2023-11-18T05:21:28;3.67;;;3.37;;
6689;SDS011;3382;51.576;8.076;2023-11-18T05:23:54;3.17;;;2.87;;
6689;SDS011;3382;51.576;8.076;2023-11-18T05:26:20;3.23;;;2.93;;
6689;SDS011;3382;51.576;8.076;2023-11-18T05:28:45;3.60;;;3.30;;
6689;SDS011;3382;51.576;8.076;2023-11-18T05:31:11;3.50;;;3.20;;
6689;SDS011;3382;51.576;8.076;2023-11-18T05:33:36;3.47;;;3.17;;
6689;SDS011;3382;51.576;8.076;2023-11-18T05:36:02;3.07;;;2.77;;
6689;SDS011;3382;51.576;8.076;2023-11-18T05:38:30;2.93;;;2.73;;
6689;SDS011;3382;51.576;8.076;2023-11-18T05:40:59;2.83;;;2.63;;
6689;SDS011;3382;51.576;8.076;2023-11-18T05:43:28;3.40;;;2.80;;
6689;SDS011;3382;51.576;8.076;2023-11-18T05:46:04;3.40;;;3.10;;
6689;SDS011;3382;51.576;8.076;2023-11-18T05:48:42;2.97;;;2.77;;
6689;SDS011;3382;51.576;8.076;2023-11-18T05:51:08;3.17;;;2.87;;
6689;SDS011;3382;51.576;8.076;2023-11-18T05:53:34;3.00;;;2.70;;
6689;SDS011;3382;51.576;8.076;2023-11-18T05:56:04;3.27;;;2.97;;
6689;SDS011;3382;51.576;8.076;2023-11-18T05:58:31;3.30;;;3.00;;
6689;SDS011;3382;51.576;8.076;2023-11-18T06:00:57;3.20;;;2.90;;
6689;SDS011;3382;51.576;8.076;2023-11-18T06:03:23;3.07;;;2.87;;
6689;SDS011;3382;51.576;8.076;2023-11-18T06:05:49;3.50;;;2.87;;
6689;SDS011;3382;51.576;8.076;2023-11-18T06:08:16;3.17;;;2.87;;
6689;SDS011;3382;51.576;8.076;2023-11-18T06:10:41;2.83;;;2.63;;
6689;SDS011;3382;51.576;8.076;2023-11-18T06:13:09;3.10;;;2.73;;
6689;SDS011;3382;51.576;8.076;2023-11-18T06:15:37;2.90;;;2.70;;
6689;SDS011;3382;51.576;8.076;2023-11-18T06:18:03;3.20;;;2.90;;
6689;SDS011;3382;51.576;8.076;2023-11-18T06:20:30;3.30;;;2.87;;
6689;SDS011;3382;51.576;8.076;2023-11-18T06:22:55;3.40;;;2.70;;
6689;SDS011;3382;51.576;8.076;2023-11-18T06:25:22;2.80;;;2.60;;
6689;SDS011;3382;51.576;8.076;2023-11-18T06:27:50;3.13;;;2.93;;
6689;SDS011;3382;51.576;8.076;2023-11-18T06:30:17;3.00;;;2.80;;
6689;SDS011;3382;51.576;8.076;2023-11-18T06:32:45;2.90;;;2.70;;
6689;SDS011;3382;51.576;8.076;2023-11-18T06:35:12;3.00;;;2.70;;
6689;SDS011;3382;51.576;8.076;2023-11-18T06:37:39;2.87;;;2.67;;
6689;SDS011;3382;51.576;8.076;2023-11-18T06:40:06;3.00;;;2.70;;
6689;SDS011;3382;51.576;8.076;2023-11-18T06:42:41;3.33;;;3.03;;
6689;SDS011;3382;51.576;8.076;2023-11-18T06:45:07;4.03;;;3.10;;
6689;SDS011;3382;51.576;8.076;2023-11-18T06:47:34;4.23;;;2.90;;
6689;SDS011;3382;51.576;8.076;2023-11-18T06:50:01;4.83;;;2.90;;
6689;SDS011;3382;51.576;8.076;2023-11-18T06:52:27;3.40;;;2.60;;
6689;SDS011;3382;51.576;8.076;2023-11-18T06:54:53;3.10;;;2.80;;
6689;SDS011;3382;51.576;8.076;2023-11-18T06:57:19;2.83;;;2.60;;
6689;SDS011;3382;51.576;8.076;2023-11-18T06:59:46;2.80;;;2.53;;
6689;SDS011;3382;51.576;8.076;2023-11-18T07:02:12;3.03;;;2.80;;
6689;SDS011;3382;51.576;8.076;2023-11-18T07:04:38;3.30;;;3.00;;
6689;SDS011;3382;51.576;8.076;2023-11-18T07:07:04;3.33;;;2.90;;
6689;SDS011;3382;51.576;8.076;2023-11-18T07:09:29;2.90;;;2.53;;
6689;SDS011;3382;51.576;8.076;2023-11-18T07:12:00;2.80;;;2.50;;
6689;SDS011;3382;51.576;8.076;2023-11-18T07:14:28;3.60;;;2.70;;
6689;SDS011;3382;51.576;8.076;2023-11-18T07:16:54;3.90;;;2.50;;
6689;SDS011;3382;51.576;8.076;2023-11-18T07:19:20;3.23;;;2.80;;
6689;SDS011;3382;51.576;8.076;2023-11-18T07:21:49;8.00;;;3.37;;
6689;SDS011;3382;51.576;8.076;2023-11-18T07:24:14;8.83;;;3.80;;
6689;SDS011;3382;51.576;8.076;2023-11-18T07:26:41;8.07;;;3.87;;
6689;SDS011;3382;51.576;8.076;2023-11-18T07:29:08;9.17;;;4.03;;
6689;SDS011;3382;51.576;8.076;2023-11-18T07:31:34;10.00;;;3.80;;
6689;SDS011;3382;51.576;8.076;2023-11-18T07:34:03;9.17;;;4.20;;
6689;SDS011;3382;51.576;8.076;2023-11-18T07:36:30;14.80;;;4.73;;
6689;SDS011;3382;51.576;8.076;2023-11-18T07:38:57;12.53;;;5.03;;
6689;SDS011;3382;51.576;8.076;2023-11-18T07:41:23;16.40;;;5.37;;
6689;SDS011;3382;51.576;8.076;2023-11-18T07:43:49;18.37;;;5.67;;
6689;SDS011;3382;51.576;8.076;2023-11-18T07:46:16;18.60;;;5.47;;
6689;SDS011;3382;51.576;8.076;2023-11-18T07:48:41;12.73;;;5.77;;
6689;SDS011;3382;51.576;8.076;2023-11-18T07:51:07;13.63;;;5.57;;
6689;SDS011;3382;51.576;8.076;2023-11-18T07:53:33;16.50;;;4.97;;
6689;SDS011;3382;51.576;8.076;2023-11-18T07:55:59;9.37;;;4.70;;
6689;SDS011;3382;51.576;8.076;2023-11-18T07:58:27;11.93;;;5.13;;
6689;SDS011;3382;51.576;8.076;2023-11-18T08:00:53;9.03;;;3.90;;
6689;SDS011;3382;51.576;8.076;2023-11-18T08:03:19;11.73;;;4.33;;
6689;SDS011;3382;51.576;8.076;2023-11-18T08:05:45;10.87;;;3.80;;
6689;SDS011;3382;51.576;8.076;2023-11-18T08:08:11;9.13;;;4.37;;
6689;SDS011;3382;51.576;8.076;2023-11-18T08:10:38;9.90;;;4.10;;
6689;SDS011;3382;51.576;8.076;2023-11-18T08:13:05;7.80;;;3.90;;
6689;SDS011;3382;51.576;8.076;2023-11-18T08:15:32;8.30;;;4.20;;
6689;SDS011;3382;51.576;8.076;2023-11-18T08:17:59;8.23;;;4.07;;
6689;SDS011;3382;51.576;8.076;2023-11-18T08:20:25;10.37;;;4.03;;
6689;SDS011;3382;51.576;8.076;2023-11-18T08:22:50;7.67;;;3.93;;
6689;SDS011;3382;51.576;8.076;2023-11-18T08:25:16;5.27;;;3.30;;
6689;SDS011;3382;51.576;8.076;2023-11-18T08:27:42;5.73;;;3.70;;
6689;SDS011;3382;51.576;8.076;2023-11-18T08:30:10;7.43;;;3.83;;
6689;SDS011;3382;51.576;8.076;2023-11-18T08:32:38;5.30;;;3.23;;
6689;SDS011;3382;51.576;8.076;2023-11-18T08:35:06;7.03;;;3.40;;
6689;SDS011;3382;51.576;8.076;2023-11-18T08:37:36;6.10;;;3.30;;
6689;SDS011;3382;51.576;8.076;2023-11-18T08:40:05;6.07;;;3.20;;
6689;SDS011;3382;51.576;8.076;2023-11-18T08:42:32;5.30;;;3.50;;
6689;SDS011;3382;51.576;8.076;2023-11-18T08:44:59;9.07;;;3.13;;
6689;SDS011;3382;51.576;8.076;2023-11-18T08:47:25;3.77;;;3.03;;
6689;SDS011;3382;51.576;8.076;2023-11-18T08:49:54;6.37;;;3.00;;
6689;SDS011;3382;51.576;8.076;2023-11-18T08:52:20;5.73;;;3.20;;
6689;SDS011;3382;51.576;8.076;2023-11-18T08:54:45;6.50;;;3.73;;
6689;SDS011;3382;51.576;8.076;2023-11-18T08:57:29;4.90;;;3.50;;
6689;SDS011;3382;51.576;8.076;2023-11-18T09:00:14;5.10;;;4.13;;
6689;SDS011;3382;51.576;8.076;2023-11-18T09:03:01;3.93;;;3.13;;
6689;SDS011;3382;51.576;8.076;2023-11-18T09:05:26;6.73;;;3.50;;
6689;SDS011;3382;51.576;8.076;2023-11-18T09:07:56;4.00;;;3.20;;
6689;SDS011;3382;51.576;8.076;2023-11-18T09:10:23;7.53;;;3.57;;
6689;SDS011;3382;51.576;8.076;2023-11-18T09:12:49;6.07;;;3.37;;
6689;SDS011;3382;51.576;8.076;2023-11-18T09:15:14;6.90;;;3.23;;
6689;SDS011;3382;51.576;8.076;2023-11-18T09:17:47;5.47;;;2.90;;
6689;SDS011;3382;51.576;8.076;2023-11-18T09:20:13;4.30;;;2.90;;
6689;SDS011;3382;51.576;8.076;2023-11-18T09:22:43;4.30;;;2.87;;
6689;SDS011;3382;51.576;8.076;2023-11-18T09:25:09;4.40;;;3.33;;
6689;SDS011;3382;51.576;8.076;2023-11-18T09:27:35;6.40;;;2.83;;
6689;SDS011;3382;51.576;8.076;2023-11-18T09:30:01;5.20;;;3.27;;
6689;SDS011;3382;51.576;8.076;2023-11-18T09:32:30;8.00;;;2.87;;
6689;SDS011;3382;51.576;8.076;2023-11-18T09:34:59;7.10;;;3.50;;
6689;SDS011;3382;51.576;8.076;2023-11-18T09:37:30;12.17;;;3.30;;
6689;SDS011;3382;51.576;8.076;2023-11-18T09:39:56;6.00;;;3.50;;
6689;SDS011;3382;51.576;8.076;2023-11-18T09:42:23;8.03;;;3.37;;
6689;SDS011;3382;51.576;8.076;2023-11-18T09:44:49;9.63;;;3.20;;
6689;SDS011;3382;51.576;8.076;2023-11-18T09:47:15;9.10;;;2.90;;
6689;SDS011;3382;51.576;8.076;2023-11-18T09:49:49;9.23;;;3.43;;
6689;SDS011;3382;51.576;8.076;2023-11-18T09:52:20;8.30;;;2.90;;
6689;SDS011;3382;51.576;8.076;2023-11-18T09:54:50;7.77;;;3.37;;
6689;SDS011;3382;51.576;8.076;2023-11-18T09:57:31;7.93;;;2.97;;
6689;SDS011;3382;51.576;8.076;2023-11-18T10:00:05;8.13;;;2.93;;
6689;SDS011;3382;51.576;8.076;2023-11-18T10:02:44;6.03;;;3.20;;
6689;SDS011;3382;51.576;8.076;2023-11-18T10:05:11;8.33;;;3.67;;
6689;SDS011;3382;51.576;8.076;2023-11-18T10:07:41;9.87;;;3.33;;
6689;SDS011;3382;51.576;8.076;2023-11-18T10:10:10;7.47;;;3.30;;
6689;SDS011;3382;51.576;8.076;2023-11-18T10:12:46;6.03;;;2.63;;
6689;SDS011;3382;51.576;8.076;2023-11-18T10:15:22;6.07;;;2.87;;
6689;SDS011;3382;51.576;8.076;2023-11-18T10:17:49;6.30;;;3.00;;
6689;SDS011;3382;51.576;8.076;2023-11-18T10:23:15;10.97;;;3.07;;
6689;SDS011;3382;51.576;8.076;2023-11-18T10:28:32;6.43;;;2.70;;
6689;SDS011;3382;51.576;8.076;2023-11-18T10:31:02;5.63;;;2.70;;
6689;SDS011;3382;51.576;8.076;2023-11-18T10:33:30;9.77;;;3.30;;
6689;SDS011;3382;51.576;8.076;2023-11-18T10:35:57;5.40;;;3.00;;
6689;SDS011;3382;51.576;8.076;2023-11-18T10:38:23;7.97;;;2.87;;
6689;SDS011;3382;51.576;8.076;2023-11-18T10:40:54;4.70;;;2.67;;
6689;SDS011;3382;51.576;8.076;2023-11-18T10:43:21;5.37;;;3.03;;
6689;SDS011;3382;51.576;8.076;2023-11-18T10:45:51;8.30;;;3.17;;
6689;SDS011;3382;51.576;8.076;2023-11-18T10:48:18;7.83;;;3.07;;
6689;SDS011;3382;51.576;8.076;2023-11-18T10:50:46;8.90;;;3.23;;
6689;SDS011;3382;51.576;8.076;2023-11-18T10:53:14;6.10;;;3.10;;
6689;SDS011;3382;51.576;8.076;2023-11-18T10:55:41;10.37;;;3.57;;
6689;SDS011;3382;51.576;8.076;2023-11-18T10:58:08;6.97;;;3.00;;
6689;SDS011;3382;51.576;8.076;2023-11-18T11:03:14;8.60;;;2.80;;
6689;SDS011;3382;51.576;8.076;2023-11-18T11:05:40;8.77;;;3.23;;
6689;SDS011;3382;51.576;8.076;2023-11-18T11:08:08;9.83;;;2.90;;
6689;SDS011;3382;51.576;8.076;2023-11-18T11:10:38;7.87;;;2.80;;
6689;SDS011;3382;51.576;8.076;2023-11-18T11:13:06;7.50;;;2.80;;
6689;SDS011;3382;51.576;8.076;2023-11-18T11:15:33;6.80;;;2.60;;
6689;SDS011;3382;51.576;8.076;2023-11-18T11:18:08;7.63;;;2.67;;
6689;SDS011;3382;51.576;8.076;2023-11-18T11:20:41;7.80;;;3.20;;
6689;SDS011;3382;51.576;8.076;2023-11-18T11:23:35;6.70;;;2.80;;
6689;SDS011;3382;51.576;8.076;2023-11-18T11:32:00;6.17;;;2.67;;
6689;SDS011;3382;51.576;8.076;2023-11-18T11:34:48;8.00;;;2.60;;
6689;SDS011;3382;51.576;8.076;2023-11-18T11:37:18;5.43;;;2.63;;
6689;SDS011;3382;51.576;8.076;2023-11-18T11:39:48;6.73;;;2.43;;
6689;SDS011;3382;51.576;8.076;2023-11-18T11:42:18;6.10;;;2.73;;
6689;SDS011;3382;51.576;8.076;2023-11-18T11:44:45;4.63;;;2.60;;
6689;SDS011;3382;51.576;8.076;2023-11-18T11:47:13;7.60;;;2.73;;
6689;SDS011;3382;51.576;8.076;2023-11-18T11:49:46;5.73;;;2.33;;
6689;SDS011;3382;51.576;8.076;2023-11-18T11:55:00;6.83;;;3.00;;
6689;SDS011;3382;51.576;8.076;2023-11-18T11:57:37;7.57;;;2.33;;
6689;SDS011;3382;51.576;8.076;2023-11-18T12:00:04;9.03;;;2.57;;
6689;SDS011;3382;51.576;8.076;2023-11-18T12:02:40;7.63;;;2.50;;
6689;SDS011;3382;51.576;8.076;2023-11-18T12:05:15;7.77;;;2.43;;
6689;SDS011;3382;51.576;8.076;2023-11-18T12:07:44;5.47;;;2.30;;
6689;SDS011;3382;51.576;8.076;2023-11-18T12:10:11;5.00;;;2.80;;
6689;SDS011;3382;51.576;8.076;2023-11-18T12:12:45;5.40;;;2.30;;
6689;SDS011;3382;51.576;8.076;2023-11-18T12:15:11;4.57;;;2.50;;
6689;SDS011;3382;51.576;8.076;2023-11-18T12:23:07;5.73;;;2.60;;
6689;SDS011;3382;51.576;8.076;2023-11-18T12:25:39;5.93;;;2.50;;
6689;SDS011;3382;51.576;8.076;2023-11-18T12:28:15;7.40;;;2.47;;
6689;SDS011;3382;51.576;8.076;2023-11-18T12:30:42;5.63;;;2.37;;
6689;SDS011;3382;51.576;8.076;2023-11-18T12:33:17;7.70;;;2.57;;
6689;SDS011;3382;51.576;8.076;2023-11-18T12:47:20;4.17;;;2.70;;
6689;SDS011;3382;51.576;8.076;2023-11-18T12:49:46;3.97;;;2.50;;
6689;SDS011;3382;51.576;8.076;2023-11-18T12:52:19;4.50;;;2.40;;
6689;SDS011;3382;51.576;8.076;2023-11-18T12:54:46;5.37;;;2.77;;
6689;SDS011;3382;51.576;8.076;2023-11-18T12:57:16;7.57;;;2.87;;
6689;SDS011;3382;51.576;8.076;2023-11-18T12:59:47;5.23;;;2.30;;
6689;SDS011;3382;51.576;8.076;2023-11-18T13:02:13;6.40;;;3.00;;
6689;SDS011;3382;51.576;8.076;2023-11-18T13:04:44;3.93;;;2.20;;
6689;SDS011;3382;51.576;8.076;2023-11-18T13:07:12;4.23;;;2.13;;
6689;SDS011;3382;51.576;8.076;2023-11-18T13:09:39;5.63;;;2.40;;
6689;SDS011;3382;51.576;8.076;2023-11-18T13:12:07;5.37;;;2.20;;
6689;SDS011;3382;51.576;8.076;2023-11-18T13:14:34;5.37;;;2.20;;
6689;SDS011;3382;51.576;8.076;2023-11-18T13:17:14;4.40;;;2.37;;
6689;SDS011;3382;51.576;8.076;2023-11-18T13:19:41;3.13;;;2.20;;
6689;SDS011;3382;51.576;8.076;2023-11-18T13:22:10;3.67;;;2.23;;
6689;SDS011;3382;51.576;8.076;2023-11-18T13:24:37;7.70;;;2.67;;
6689;SDS011;3382;51.576;8.076;2023-11-18T13:27:10;6.33;;;2.60;;
6689;SDS011;3382;51.576;8.076;2023-11-18T13:29:43;6.87;;;2.70;;
6689;SDS011;3382;51.576;8.076;2023-11-18T13:32:18;4.37;;;2.33;;
6689;SDS011;3382;51.576;8.076;2023-11-18T13:34:48;4.20;;;2.13;;
6689;SDS011;3382;51.576;8.076;2023-11-18T13:37:13;4.80;;;2.37;;
6689;SDS011;3382;51.576;8.076;2023-11-18T13:39:41;3.97;;;2.57;;
6689;SDS011;3382;51.576;8.076;2023-11-18T13:42:19;5.63;;;2.60;;
6689;SDS011;3382;51.576;8.076;2023-11-18T13:44:46;4.13;;;2.37;;
6689;SDS011;3382;51.576;8.076;2023-11-18T13:47:13;4.33;;;2.40;;
6689;SDS011;3382;51.576;8.076;2023-11-18T13:49:42;3.93;;;2.00;;
6689;SDS011;3382;51.576;8.076;2023-11-18T13:52:08;4.57;;;2.23;;
6689;SDS011;3382;51.576;8.076;2023-11-18T13:54:36;5.87;;;2.07;;
6689;SDS011;3382;51.576;8.076;2023-11-18T13:57:03;6.10;;;2.60;;
6689;SDS011;3382;51.576;8.076;2023-11-18T13:59:30;13.13;;;2.70;;
6689;SDS011;3382;51.576;8.076;2023-11-18T14:01:57;5.83;;;2.47;;
6689;SDS011;3382;51.576;8.076;2023-11-18T14:04:26;6.93;;;2.57;;
6689;SDS011;3382;51.576;8.076;2023-11-18T14:06:58;5.93;;;2.77;;
6689;SDS011;3382;51.576;8.076;2023-11-18T14:09:25;4.43;;;2.47;;
6689;SDS011;3382;51.576;8.076;2023-11-18T14:11:52;5.47;;;2.53;;
6689;SDS011;3382;51.576;8.076;2023-11-18T14:14:20;6.37;;;3.10;;
6689;SDS011;3382;51.576;8.076;2023-11-18T14:16:46;13.60;;;2.57;;
6689;SDS011;3382;51.576;8.076;2023-11-18T14:19:11;8.20;;;2.40;;
6689;SDS011;3382;51.576;8.076;2023-11-18T14:21:37;8.77;;;3.03;;
6689;SDS011;3382;51.576;8.076;2023-11-18T14:24:05;4.97;;;2.33;;
6689;SDS011;3382;51.576;8.076;2023-11-18T14:26:32;13.23;;;3.00;;
6689;SDS011;3382;51.576;8.076;2023-11-18T14:28:58;9.73;;;2.73;;
6689;SDS011;3382;51.576;8.076;2023-11-18T14:31:25;6.40;;;2.60;;
6689;SDS011;3382;51.576;8.076;2023-11-18T14:33:50;7.60;;;2.30;;
6689;SDS011;3382;51.576;8.076;2023-11-18T14:36:17;7.80;;;2.93;;
6689;SDS011;3382;51.576;8.076;2023-11-18T14:38:44;6.20;;;2.40;;
6689;SDS011;3382;51.576;8.076;2023-11-18T14:41:09;9.23;;;2.53;;
6689;SDS011;3382;51.576;8.076;2023-11-18T14:43:35;7.23;;;2.70;;
6689;SDS011;3382;51.576;8.076;2023-11-18T14:46:01;5.43;;;2.47;;
6689;SDS011;3382;51.576;8.076;2023-11-18T14:48:28;5.00;;;2.77;;
6689;SDS011;3382;51.576;8.076;2023-11-18T14:50:54;8.70;;;2.30;;
6689;SDS011;3382;51.576;8.076;2023-11-18T14:53:21;6.90;;;2.80;;
6689;SDS011;3382;51.576;8.076;2023-11-18T14:55:47;4.33;;;2.50;;
6689;SDS011;3382;51.576;8.076;2023-11-18T14:58:13;5.80;;;2.67;;
6689;SDS011;3382;51.576;8.076;2023-11-18T15:00:39;6.37;;;2.70;;
6689;SDS011;3382;51.576;8.076;2023-11-18T15:03:04;6.27;;;2.70;;
6689;SDS011;3382;51.576;8.076;2023-11-18T15:05:31;7.67;;;2.73;;
6689;SDS011;3382;51.576;8.076;2023-11-18T15:07:56;6.13;;;2.47;;
6689;SDS011;3382;51.576;8.076;2023-11-18T15:10:25;7.83;;;2.57;;
6689;SDS011;3382;51.576;8.076;2023-11-18T15:12:53;5.80;;;2.40;;
6689;SDS011;3382;51.576;8.076;2023-11-18T15:15:23;5.50;;;2.50;;
6689;SDS011;3382;51.576;8.076;2023-11-18T15:18:02;6.60;;;2.77;;
6689;SDS011;3382;51.576;8.076;2023-11-18T15:20:39;4.43;;;2.33;;
6689;SDS011;3382;51.576;8.076;2023-11-18T15:23:08;6.37;;;2.73;;
6689;SDS011;3382;51.576;8.076;2023-11-18T15:25:34;6.03;;;2.23;;
6689;SDS011;3382;51.576;8.076;2023-11-18T15:27:59;5.00;;;2.30;;
6689;SDS011;3382;51.576;8.076;2023-11-18T15:30:25;7.50;;;2.50;;
6689;SDS011;3382;51.576;8.076;2023-11-18T15:32:52;4.27;;;2.43;;
6689;SDS011;3382;51.576;8.076;2023-11-18T15:35:18;8.20;;;2.40;;
6689;SDS011;3382;51.576;8.076;2023-11-18T15:37:46;3.90;;;2.30;;
6689;SDS011;3382;51.576;8.076;2023-11-18T15:40:15;3.97;;;2.10;;
6689;SDS011;3382;51.576;8.076;2023-11-18T15:42:44;5.00;;;2.40;;
6689;SDS011;3382;51.576;8.076;2023-11-18T15:47:43;7.03;;;2.57;;
6689;SDS011;3382;51.576;8.076;2023-11-18T15:50:09;7.20;;;2.10;;
6689;SDS011;3382;51.576;8.076;2023-11-18T15:52:44;3.57;;;2.30;;
6689;SDS011;3382;51.576;8.076;2023-11-18T15:55:10;3.17;;;2.30;;
6689;SDS011;3382;51.576;8.076;2023-11-18T15:57:42;4.23;;;2.20;;
6689;SDS011;3382;51.576;8.076;2023-11-18T16:00:09;3.40;;;2.03;;